createdAt,value
2023-03-19T00:00:53.857Z,2.20
2023-03-19T00:03:21.389Z,1.70
2023-03-19T00:05:54.798Z,1.75
2023-03-19T00:08:22.753Z,1.65
2023-03-19T00:10:50.998Z,1.90
2023-03-19T00:13:18.924Z,1.88
2023-03-19T00:15:47.275Z,1.65
2023-03-19T00:18:14.754Z,2.15
2023-03-19T00:20:42.771Z,1.88
2023-03-19T00:23:09.964Z,1.80
2023-03-19T00:25:37.218Z,1.70
2023-03-19T00:28:04.651Z,2.15
2023-03-19T00:30:31.919Z,1.98
2023-03-19T00:32:59.240Z,1.85
2023-03-19T00:35:27.064Z,2.17
2023-03-19T00:37:55.289Z,2.20
2023-03-19T00:40:22.627Z,2.00
2023-03-19T00:42:50.244Z,1.90
2023-03-19T00:45:18.046Z,1.90
2023-03-19T00:47:45.341Z,2.03
2023-03-19T00:50:13.833Z,2.20
2023-03-19T00:52:41.642Z,2.13
2023-03-19T00:55:09.502Z,1.80
2023-03-19T00:57:37.217Z,2.35
2023-03-19T01:00:05.300Z,2.50
2023-03-19T01:02:32.607Z,2.53
2023-03-19T01:04:59.944Z,2.08
2023-03-19T01:07:27.336Z,2.30
2023-03-19T01:09:56.705Z,2.10
2023-03-19T01:12:23.916Z,2.63
2023-03-19T01:14:51.307Z,2.20
2023-03-19T01:17:18.606Z,2.60
2023-03-19T01:19:46.046Z,2.10
2023-03-19T01:22:14.323Z,2.15
2023-03-19T01:24:45.963Z,2.67
2023-03-19T01:27:13.317Z,2.60
2023-03-19T01:29:40.606Z,2.05
2023-03-19T01:32:19.903Z,2.23
2023-03-19T01:35:05.872Z,2.03
2023-03-19T01:37:33.131Z,2.28
2023-03-19T01:40:00.366Z,2.55
2023-03-19T01:42:27.947Z,2.55
2023-03-19T01:45:38.181Z,2.40
2023-03-19T01:48:49.635Z,2.40
2023-03-19T01:51:22.011Z,2.40
2023-03-19T01:54:01.182Z,2.53
2023-03-19T01:56:45.321Z,2.30
2023-03-19T01:59:51.554Z,2.38
2023-03-19T02:02:38.717Z,2.03
2023-03-19T02:05:25.430Z,2.88
2023-03-19T02:07:57.062Z,2.72
2023-03-19T02:10:25.117Z,2.20
2023-03-19T02:12:52.424Z,2.58
2023-03-19T02:15:20.041Z,2.75
2023-03-19T02:17:47.896Z,2.67
2023-03-19T02:20:24.872Z,2.55
2023-03-19T02:23:09.519Z,2.53
2023-03-19T02:25:46.263Z,2.53
2023-03-19T02:28:19.422Z,2.45
2023-03-19T02:30:50.185Z,2.83
2023-03-19T02:33:18.838Z,2.20
2023-03-19T02:35:48.043Z,2.40
2023-03-19T02:38:17.716Z,2.33
2023-03-19T02:40:49.616Z,2.65
2023-03-19T02:43:16.874Z,3.15
2023-03-19T02:45:44.768Z,3.03
2023-03-19T02:48:12.159Z,2.72
2023-03-19T02:50:39.439Z,2.90
2023-03-19T02:53:06.877Z,3.20
2023-03-19T02:55:34.195Z,3.88
2023-03-19T02:58:01.546Z,4.50
2023-03-19T03:00:29.688Z,4.20
2023-03-19T03:02:58.090Z,4.28
2023-03-19T03:05:25.666Z,4.75
2023-03-19T03:07:53.859Z,3.35
2023-03-19T03:10:21.213Z,3.65
2023-03-19T03:12:48.785Z,3.33
2023-03-19T03:15:16.361Z,3.17
2023-03-19T03:17:45.584Z,3.10
2023-03-19T03:20:15.165Z,3.53
2023-03-19T03:22:42.874Z,2.85
2023-03-19T03:25:10.650Z,2.97
2023-03-19T03:27:38.630Z,3.13
2023-03-19T03:30:08.381Z,3.33
2023-03-19T03:32:37.059Z,2.97
2023-03-19T03:35:05.833Z,3.47
2023-03-19T03:37:33.060Z,3.40
2023-03-19T03:40:00.331Z,3.50
2023-03-19T03:42:27.739Z,3.00
2023-03-19T03:44:55.047Z,3.45
2023-03-19T03:47:22.590Z,2.60
2023-03-19T03:49:50.083Z,3.15
2023-03-19T03:52:17.755Z,2.80
2023-03-19T03:54:45.034Z,3.17
2023-03-19T03:57:12.395Z,3.55
2023-03-19T03:59:39.705Z,3.50
2023-03-19T04:02:07.441Z,3.38
2023-03-19T04:04:34.864Z,3.40
2023-03-19T04:07:02.212Z,3.50
2023-03-19T04:09:41.219Z,3.42
2023-03-19T04:12:09.518Z,3.40
2023-03-19T04:14:37.416Z,3.30
2023-03-19T04:17:05.216Z,3.20
2023-03-19T04:19:32.746Z,3.33
2023-03-19T04:22:00.058Z,3.40
2023-03-19T04:24:27.797Z,3.65
2023-03-19T04:26:55.129Z,3.47
2023-03-19T04:29:23.108Z,3.90
2023-03-19T04:31:51.228Z,3.80
2023-03-19T04:34:19.631Z,3.60
2023-03-19T04:36:47.347Z,3.78
2023-03-19T04:39:14.620Z,3.70
2023-03-19T04:41:42.234Z,3.83
2023-03-19T04:44:25.202Z,3.80
2023-03-19T04:46:53.699Z,4.32
2023-03-19T04:49:22.458Z,5.03
2023-03-19T04:51:51.603Z,4.57
2023-03-19T04:54:19.022Z,4.35
2023-03-19T04:56:46.473Z,4.45
2023-03-19T04:59:13.710Z,3.65
2023-03-19T05:01:41.205Z,4.28
2023-03-19T05:04:11.326Z,4.50
2023-03-19T05:06:39.303Z,4.18
2023-03-19T05:09:07.713Z,4.60
2023-03-19T05:11:35.151Z,5.00
2023-03-19T05:14:05.618Z,5.68
2023-03-19T05:16:45.737Z,5.35
2023-03-19T05:19:13.080Z,5.95
2023-03-19T05:21:40.879Z,5.63
2023-03-19T05:24:08.490Z,6.80
2023-03-19T05:26:38.179Z,6.90
2023-03-19T05:29:31.806Z,7.22
2023-03-19T05:34:40.224Z,7.00
2023-03-19T05:37:08.581Z,7.75
2023-03-19T05:39:36.400Z,7.85
2023-03-19T05:42:08.075Z,7.35
2023-03-19T05:44:35.408Z,7.32
2023-03-19T05:47:13.347Z,6.78
2023-03-19T05:49:46.092Z,7.32
2023-03-19T05:52:13.848Z,6.65
2023-03-19T05:54:41.636Z,7.28
2023-03-19T05:57:27.834Z,7.15
2023-03-19T06:00:21.724Z,7.38
2023-03-19T06:02:49.360Z,7.50
2023-03-19T06:05:25.978Z,7.60
2023-03-19T06:07:57.016Z,7.18
2023-03-19T06:10:36.458Z,7.63
2023-03-19T06:13:08.344Z,8.10
2023-03-19T06:15:42.060Z,8.13
2023-03-19T06:18:38.386Z,8.30
2023-03-19T06:21:09.916Z,7.95
2023-03-19T06:23:37.433Z,8.13
2023-03-19T06:26:06.945Z,7.82
2023-03-19T06:28:45.402Z,8.13
2023-03-19T06:31:14.741Z,7.35
2023-03-19T06:33:58.177Z,7.93
2023-03-19T06:36:32.358Z,7.30
2023-03-19T06:38:59.876Z,7.75
2023-03-19T06:41:27.397Z,7.07
2023-03-19T06:44:01.706Z,7.43
2023-03-19T06:46:29.118Z,7.45
2023-03-19T06:48:57.125Z,7.80
2023-03-19T06:51:24.421Z,7.60
2023-03-19T06:53:51.833Z,8.05
2023-03-19T06:56:19.114Z,8.43
2023-03-19T06:58:46.410Z,8.27
2023-03-19T07:01:14.308Z,7.70
2023-03-19T07:03:41.803Z,8.30
2023-03-19T07:06:09.120Z,8.20
2023-03-19T07:08:36.388Z,8.57
2023-03-19T07:11:05.282Z,7.65
2023-03-19T07:13:33.242Z,8.13
2023-03-19T07:16:01.008Z,7.65
2023-03-19T07:18:28.704Z,8.02
2023-03-19T07:20:56.085Z,7.78
2023-03-19T07:23:23.509Z,7.38
2023-03-19T07:25:50.835Z,7.40
2023-03-19T07:28:18.138Z,7.32
2023-03-19T07:30:45.546Z,7.32
2023-03-19T07:33:14.404Z,7.20
2023-03-19T07:35:42.159Z,6.13
2023-03-19T07:38:09.432Z,5.95
2023-03-19T07:40:37.081Z,6.20
2023-03-19T07:43:04.377Z,5.97
2023-03-19T07:45:31.709Z,6.18
2023-03-19T07:48:01.672Z,5.85
2023-03-19T07:50:30.874Z,6.07
2023-03-19T07:52:58.516Z,6.10
2023-03-19T07:55:26.028Z,5.78
2023-03-19T07:57:53.349Z,5.57
2023-03-19T08:00:20.949Z,5.20
2023-03-19T08:02:48.319Z,5.53
2023-03-19T08:05:16.258Z,5.20
2023-03-19T08:07:45.055Z,5.25
2023-03-19T08:10:12.454Z,5.45
2023-03-19T08:12:41.257Z,5.40
2023-03-19T08:15:10.658Z,4.75
2023-03-19T08:17:38.479Z,4.73
2023-03-19T08:20:11.110Z,4.32
2023-03-19T08:22:39.050Z,4.68
2023-03-19T08:25:07.070Z,4.18
2023-03-19T08:27:36.107Z,4.25
2023-03-19T08:30:04.753Z,3.30
2023-03-19T08:32:32.060Z,3.58
2023-03-19T08:34:59.330Z,3.38
2023-03-19T08:37:26.588Z,3.60
2023-03-19T08:39:53.931Z,3.85
2023-03-19T08:42:22.683Z,3.80
2023-03-19T08:44:50.627Z,4.60
2023-03-19T08:47:17.857Z,4.20
2023-03-19T08:49:45.468Z,4.15
2023-03-19T08:52:12.835Z,4.10
2023-03-19T08:54:40.215Z,4.28
2023-03-19T08:57:07.464Z,4.25
2023-03-19T08:59:34.885Z,4.50
2023-03-19T09:02:02.295Z,4.65
2023-03-19T09:04:29.645Z,4.35
2023-03-19T09:06:56.954Z,4.13
2023-03-19T09:09:24.664Z,4.03
2023-03-19T09:11:52.003Z,3.10
2023-03-19T09:14:20.705Z,3.70
2023-03-19T09:16:47.850Z,3.60
2023-03-19T09:19:15.336Z,3.58
2023-03-19T09:21:42.718Z,3.15
2023-03-19T09:24:10.249Z,3.63
2023-03-19T09:26:37.580Z,3.00
2023-03-19T09:29:04.966Z,3.38
2023-03-19T09:31:32.375Z,3.53
2023-03-19T09:33:59.785Z,3.95
2023-03-19T09:36:27.344Z,4.25
2023-03-19T09:38:57.558Z,4.45
2023-03-19T09:44:14.900Z,4.00
2023-03-19T09:46:46.408Z,3.67
2023-03-19T09:49:22.527Z,3.55
2023-03-19T09:52:05.155Z,3.63
2023-03-19T09:55:04.459Z,3.17
2023-03-19T09:57:39.803Z,3.53
2023-03-19T10:00:27.250Z,3.65
2023-03-19T10:03:04.384Z,2.65
2023-03-19T10:05:45.442Z,2.85
2023-03-19T10:08:43.089Z,2.38
2023-03-19T10:11:49.160Z,2.70
2023-03-19T10:14:22.280Z,2.95
2023-03-19T10:16:52.071Z,2.88
2023-03-19T10:19:23.403Z,3.50
2023-03-19T10:21:57.065Z,3.03
2023-03-19T10:24:25.850Z,3.08
2023-03-19T10:26:58.447Z,4.15
2023-03-19T10:29:26.987Z,4.18
2023-03-19T10:32:08.490Z,5.25
2023-03-19T10:34:37.874Z,5.65
2023-03-19T10:37:07.914Z,5.60
2023-03-19T10:39:37.198Z,5.88
2023-03-19T10:42:08.952Z,5.80
2023-03-19T10:44:46.136Z,6.90
2023-03-19T10:47:14.905Z,7.55
2023-03-19T10:49:42.560Z,7.20
2023-03-19T10:52:29.375Z,8.48
2023-03-19T10:55:02.923Z,9.45
2023-03-19T10:57:31.951Z,10.18
2023-03-19T11:00:06.236Z,10.35
2023-03-19T11:02:34.105Z,9.23
2023-03-19T11:05:31.687Z,10.45
2023-03-19T11:08:02.348Z,10.18
2023-03-19T11:10:32.200Z,9.40
2023-03-19T11:13:16.153Z,7.90
2023-03-19T11:15:47.390Z,4.50
2023-03-19T11:18:27.707Z,3.10
2023-03-19T11:20:59.960Z,2.33
2023-03-19T11:23:29.095Z,2.58
2023-03-19T11:26:01.670Z,2.92
2023-03-19T11:28:33.650Z,2.30
2023-03-19T11:31:37.375Z,2.50
2023-03-19T11:34:23.071Z,2.00
2023-03-19T11:37:15.465Z,2.42
2023-03-19T11:40:01.028Z,2.40
2023-03-19T11:42:28.453Z,2.17
2023-03-19T11:45:04.697Z,2.42
2023-03-19T11:47:37.757Z,2.28
2023-03-19T11:50:09.480Z,1.77
2023-03-19T11:53:08.063Z,1.80
2023-03-19T11:55:53.211Z,2.03
2023-03-19T11:59:02.151Z,2.38
2023-03-19T12:01:51.362Z,2.10
2023-03-19T12:04:49.447Z,1.73
2023-03-19T12:07:31.741Z,2.35
2023-03-19T12:10:20.790Z,2.35
2023-03-19T12:13:11.252Z,2.08
2023-03-19T12:15:44.880Z,2.53
2023-03-19T12:18:33.681Z,2.28
2023-03-19T12:21:17.580Z,2.60
2023-03-19T12:23:59.783Z,2.20
2023-03-19T12:26:51.034Z,2.38
2023-03-19T12:29:30.143Z,2.20
2023-03-19T12:32:14.030Z,1.95
2023-03-19T12:34:52.628Z,2.10
2023-03-19T12:37:27.383Z,1.90
2023-03-19T12:40:16.664Z,1.55
2023-03-19T12:42:44.025Z,1.63
2023-03-19T12:45:19.907Z,2.03
2023-03-19T12:47:47.952Z,2.10
2023-03-19T12:50:17.434Z,2.03
2023-03-19T12:52:49.546Z,1.80
2023-03-19T12:55:20.140Z,2.08
2023-03-19T12:58:31.241Z,1.95
2023-03-19T13:01:03.427Z,2.00
2023-03-19T13:03:35.191Z,2.05
2023-03-19T13:06:09.138Z,1.98
2023-03-19T13:08:52.842Z,2.15
2023-03-19T13:11:59.747Z,1.70
2023-03-19T13:14:44.095Z,1.92
2023-03-19T13:17:34.513Z,2.22
2023-03-19T13:20:08.118Z,2.30
2023-03-19T13:22:37.348Z,2.17
2023-03-19T13:25:05.731Z,1.70
2023-03-19T13:27:34.591Z,1.40
2023-03-19T13:30:01.995Z,1.90
2023-03-19T13:32:44.682Z,1.30
2023-03-19T13:35:21.536Z,2.00
2023-03-19T13:37:55.522Z,2.35
2023-03-19T13:40:47.422Z,1.40
2023-03-19T13:43:29.910Z,1.23
2023-03-19T13:46:12.382Z,1.42
2023-03-19T13:48:45.678Z,1.55
2023-03-19T13:51:12.886Z,1.50
2023-03-19T13:53:52.138Z,1.42
2023-03-19T13:56:29.431Z,1.50
2023-03-19T13:59:15.739Z,1.50
2023-03-19T14:01:47.774Z,1.20
2023-03-19T14:04:24.254Z,1.20
2023-03-19T14:07:14.733Z,1.27
2023-03-19T14:09:47.882Z,1.77
2023-03-19T14:12:18.182Z,1.48
2023-03-19T14:14:48.834Z,1.30
2023-03-19T14:17:37.846Z,3.38
2023-03-19T14:20:12.529Z,1.20
2023-03-19T14:22:59.054Z,1.23
2023-03-19T14:25:30.787Z,1.30
2023-03-19T14:28:01.045Z,1.50
2023-03-19T14:30:40.775Z,1.33
2023-03-19T14:33:17.903Z,0.90
2023-03-19T14:35:46.683Z,1.30
2023-03-19T14:38:18.369Z,1.30
2023-03-19T14:40:47.456Z,1.25
2023-03-19T14:43:39.399Z,0.80
2023-03-19T14:46:23.525Z,1.02
2023-03-19T14:49:09.488Z,0.98
2023-03-19T14:51:55.417Z,1.30
2023-03-19T14:54:37.968Z,1.27
2023-03-19T14:57:37.738Z,1.40
2023-03-19T15:00:07.405Z,1.30
2023-03-19T15:02:39.305Z,1.80
2023-03-19T15:05:09.253Z,1.70
2023-03-19T15:07:39.188Z,2.13
2023-03-19T15:10:08.793Z,1.80
2023-03-19T15:12:51.392Z,2.17
2023-03-19T15:15:57.849Z,1.63
2023-03-19T15:18:26.003Z,1.70
2023-03-19T15:20:54.555Z,1.50
2023-03-19T15:23:28.370Z,2.03
2023-03-19T15:25:58.329Z,1.60
2023-03-19T15:28:28.775Z,2.13
2023-03-19T15:31:31.658Z,1.67
2023-03-19T15:34:18.038Z,2.05
2023-03-19T15:36:46.621Z,1.50
2023-03-19T15:39:17.067Z,2.08
2023-03-19T15:41:46.613Z,1.58
2023-03-19T15:44:19.525Z,1.75
2023-03-19T15:46:47.211Z,1.60
2023-03-19T15:49:30.381Z,1.52
2023-03-19T15:52:03.324Z,1.50
2023-03-19T15:54:32.437Z,1.67
2023-03-19T15:56:59.659Z,1.60
2023-03-19T15:59:30.096Z,2.03
2023-03-19T16:02:00.480Z,1.67
2023-03-19T16:04:38.462Z,1.10
2023-03-19T16:07:26.321Z,21.23
2023-03-19T16:09:53.819Z,2.92
2023-03-19T16:12:41.046Z,1.98
2023-03-19T16:15:29.833Z,2.28
2023-03-19T16:18:30.454Z,4.25
2023-03-19T16:21:04.140Z,14.73
2023-03-19T16:23:34.183Z,3.58
2023-03-19T16:26:16.961Z,7.10
2023-03-19T16:28:48.436Z,8.85
2023-03-19T16:31:28.948Z,1.90
2023-03-19T16:33:57.045Z,6.75
2023-03-19T16:36:28.742Z,4.35
2023-03-19T16:39:32.944Z,2.35
2023-03-19T16:42:09.435Z,2.78
2023-03-19T16:44:40.626Z,2.03
2023-03-19T16:47:12.538Z,2.15
2023-03-19T16:49:39.825Z,3.28
2023-03-19T16:52:13.607Z,3.65
2023-03-19T16:54:40.834Z,1.10
2023-03-19T16:57:11.459Z,1.83
2023-03-19T16:59:39.168Z,1.50
2023-03-19T17:02:13.986Z,1.27
2023-03-19T17:04:41.897Z,1.30
2023-03-19T17:07:09.739Z,1.10
2023-03-19T17:09:37.142Z,1.20
2023-03-19T17:12:06.642Z,1.25
2023-03-19T17:14:34.633Z,1.15
2023-03-19T17:17:06.929Z,1.73
2023-03-19T17:19:35.667Z,1.55
2023-03-19T17:22:03.181Z,1.40
2023-03-19T17:24:32.729Z,1.30
2023-03-19T17:27:02.492Z,1.00
2023-03-19T17:29:31.339Z,1.58
2023-03-19T17:32:02.892Z,1.35
2023-03-19T17:34:31.965Z,1.25
2023-03-19T17:37:01.149Z,1.10
2023-03-19T17:39:32.129Z,0.90
2023-03-19T17:41:59.686Z,1.40
2023-03-19T17:44:27.944Z,1.50
2023-03-19T17:46:56.081Z,1.60
2023-03-19T17:49:31.659Z,1.70
2023-03-19T17:51:59.608Z,1.70
2023-03-19T17:54:27.917Z,1.58
2023-03-19T17:56:56.014Z,1.67
2023-03-19T17:59:23.597Z,1.73
2023-03-19T18:01:52.126Z,1.63
2023-03-19T18:04:21.020Z,1.50
2023-03-19T18:06:55.944Z,1.48
2023-03-19T18:09:32.810Z,1.38
2023-03-19T18:12:00.173Z,1.70
2023-03-19T18:14:27.554Z,1.88
2023-03-19T18:16:54.733Z,1.90
2023-03-19T18:19:22.254Z,2.08
2023-03-19T18:21:49.452Z,1.77
2023-03-19T18:24:16.761Z,1.65
2023-03-19T18:26:45.125Z,2.10
2023-03-19T18:29:12.451Z,2.28
2023-03-19T18:31:41.434Z,1.85
2023-03-19T18:34:11.203Z,2.15
2023-03-19T18:36:39.229Z,2.40
2023-03-19T18:39:17.207Z,2.13
2023-03-19T18:41:44.546Z,2.40
2023-03-19T18:44:12.285Z,2.05
2023-03-19T18:46:40.690Z,2.55
2023-03-19T18:49:21.055Z,2.15
2023-03-19T18:52:01.635Z,2.85
2023-03-19T18:54:31.266Z,2.13
2023-03-19T18:57:00.612Z,1.90
2023-03-19T18:59:30.893Z,2.97
2023-03-19T19:02:02.501Z,2.30
2023-03-19T19:04:30.134Z,1.85
2023-03-19T19:06:57.422Z,2.45
2023-03-19T19:09:24.804Z,2.28
2023-03-19T19:11:54.481Z,1.80
2023-03-19T19:14:23.541Z,2.40
2023-03-19T19:16:51.638Z,1.85
2023-03-19T19:19:23.023Z,2.35
2023-03-19T19:21:51.548Z,1.90
2023-03-19T19:24:18.861Z,2.08
2023-03-19T19:26:48.211Z,2.47
2023-03-19T19:29:26.698Z,2.30
2023-03-19T19:31:54.689Z,2.50
2023-03-19T19:34:22.601Z,2.58
2023-03-19T19:36:50.956Z,2.00
2023-03-19T19:39:18.516Z,1.90
2023-03-19T19:41:46.789Z,2.88
2023-03-19T19:44:18.936Z,2.63
2023-03-19T19:46:46.317Z,2.97
2023-03-19T19:49:15.017Z,2.25
2023-03-19T19:51:42.415Z,3.03
2023-03-19T19:54:09.735Z,3.75
2023-03-19T19:56:37.610Z,3.20
2023-03-19T19:59:06.826Z,2.75
2023-03-19T20:01:34.472Z,3.23
2023-03-19T20:04:04.197Z,2.20
2023-03-19T20:06:31.943Z,2.05
2023-03-19T20:08:59.429Z,2.15
2023-03-19T20:11:26.781Z,2.40
2023-03-19T20:13:57.154Z,1.60
2023-03-19T20:16:27.042Z,2.30
2023-03-19T20:18:55.181Z,1.60
2023-03-19T20:21:22.910Z,2.15
2023-03-19T20:23:53.114Z,1.90
2023-03-19T20:28:49.407Z,1.77
2023-03-19T20:31:29.719Z,2.53
2023-03-19T20:33:59.031Z,2.33
2023-03-19T20:36:26.769Z,2.13
2023-03-19T20:38:54.283Z,2.40
2023-03-19T20:41:23.739Z,2.50
2023-03-19T20:43:51.531Z,1.83
2023-03-19T20:46:20.514Z,2.20
2023-03-19T20:48:48.464Z,2.20
2023-03-19T20:51:22.709Z,2.40
2023-03-19T20:53:51.757Z,2.10
2023-03-19T20:56:24.154Z,2.60
2023-03-19T20:58:51.820Z,2.35
2023-03-19T21:01:19.832Z,3.30
2023-03-19T21:03:47.635Z,2.53
2023-03-19T21:06:15.284Z,2.47
2023-03-19T21:08:45.789Z,3.75
2023-03-19T21:11:18.984Z,2.70
2023-03-19T21:13:47.997Z,2.45
2023-03-19T21:16:21.099Z,2.38
2023-03-19T21:18:48.981Z,4.30
2023-03-19T21:21:17.134Z,2.90
2023-03-19T21:24:19.398Z,3.60
2023-03-19T21:26:47.086Z,4.82
2023-03-19T21:29:18.273Z,4.50
2023-03-19T21:31:45.951Z,6.40
2023-03-19T21:34:14.530Z,8.23
2023-03-19T21:36:41.836Z,7.95
2023-03-19T21:39:09.048Z,8.68
2023-03-19T21:41:37.342Z,9.45
2023-03-19T21:44:13.478Z,9.38
2023-03-19T21:46:41.485Z,10.15
2023-03-19T21:49:11.784Z,9.30
2023-03-19T21:51:38.951Z,8.27
2023-03-19T21:54:06.163Z,8.95
2023-03-19T21:56:37.705Z,8.10
2023-03-19T21:59:12.773Z,7.93
2023-03-19T22:01:40.659Z,7.47
2023-03-19T22:04:08.224Z,8.30
2023-03-19T22:06:37.621Z,6.38
2023-03-19T22:09:04.842Z,6.63
2023-03-19T22:11:34.984Z,7.32
2023-03-19T22:16:34.460Z,7.18
2023-03-19T22:19:01.892Z,7.05
2023-03-19T22:21:32.915Z,6.55
2023-03-19T22:24:00.343Z,7.70
2023-03-19T22:26:33.792Z,7.72
2023-03-19T22:29:03.478Z,8.00
2023-03-19T22:31:32.070Z,7.55
2023-03-19T22:33:59.542Z,7.85
2023-03-19T22:36:26.879Z,7.40
2023-03-19T22:38:54.141Z,6.45
2023-03-19T22:41:36.648Z,6.90
2023-03-19T22:44:07.452Z,7.07
2023-03-19T22:46:34.847Z,7.78
2023-03-19T22:49:02.491Z,6.85
2023-03-19T22:51:29.901Z,6.60
2023-03-19T22:53:57.150Z,6.70
2023-03-19T22:56:24.402Z,6.43
2023-03-19T22:58:52.314Z,6.93
2023-03-19T23:01:23.134Z,6.70
2023-03-19T23:03:50.989Z,6.45
2023-03-19T23:06:29.569Z,7.00
2023-03-19T23:08:57.420Z,6.60
2023-03-19T23:11:25.128Z,7.50
2023-03-19T23:13:54.627Z,7.22
2023-03-19T23:16:24.709Z,6.45
2023-03-19T23:18:52.461Z,8.00
2023-03-19T23:21:20.878Z,7.47
2023-03-19T23:23:48.199Z,7.45
2023-03-19T23:26:30.299Z,7.28
2023-03-19T23:29:02.127Z,7.88
2023-03-19T23:31:29.628Z,6.80
2023-03-19T23:33:56.931Z,7.22
2023-03-19T23:36:24.317Z,7.43
2023-03-19T23:38:51.955Z,7.53
2023-03-19T23:41:26.108Z,7.68
2023-03-19T23:43:53.614Z,8.07
2023-03-19T23:46:21.337Z,7.53
2023-03-19T23:48:48.723Z,7.68
2023-03-19T23:51:17.406Z,7.22
2023-03-19T23:53:44.668Z,6.85
2023-03-19T23:56:24.319Z,7.25
2023-03-19T23:58:52.727Z,6.55
